Quay, New Mexico
Current Conditions -  °F | °C
As of 1:53 AM on Saturday 29 Nov 2014 (Local Time) from KTCC Reporting Station
Clear Clear  
Wind Chill: 55°   Ceiling: Unl
Heat Index: 55°   Visibility: 10mi
Dew Point: 20°   Wind: 16mph
Humidity: 25%   Direction: 270°W
Pressure: 29.88"   Gusts: NA
Location:  34.93°N, 103.76°W
Report Text: KTCC 290853Z AUTO 27014KT 10SM CLR 13/M07 A2988 RMK AO2 SLP068 T01281067 56009
Loading
Personal Weather Stations






























Interactive Weather Map New forecast layout! Learn more

10-Day Weather Forecast

Advertisements
Track Severe Weather on mobile